Weather at Key West International Airport

Public forecast

Using degrees Fahrenheit for public forecast. Weather courtesy of forecast.io.

Current aviation weather report (METAR) for Key West International Airport

Retrieved 2021/10/27 20:53 UTC (1 hour ago):

KEYW 272053Z 10SM CLR 29/24 A2986 RMK AO2 SLP110 T02940239 56009

Aviation forecast (TAF) for Key West International Airport

Retrieved 2021/10/27 18:27 UTC (3 hours ago):

TAF KEYW 271724Z 2718/2818 31006KT P6SM FEW025 FM280500 19008KT P6SM VCSH SCT025 OVC250 FM281200 20013KT P6SM SCT025 OVC250